Newfoundland, New Jersey
Current Conditions -  °F | °C
As of 1:53 PM on Saturday 25 Oct 2014 (Local Time) from KCDW Reporting Station
Clear Clear  
Wind Chill: 65°   Ceiling: Unl
Heat Index: 65°   Visibility: 10mi
Dew Point: 39°   Wind: 9mph
Humidity: 39%   Direction: 310°NW
Pressure: 29.73"   Gusts: NA
Location:  41.05°N, 74.43°W
Report Text: KCDW 251753Z 31008KT 10SM CLR 18/04 A2973 RMK AO2 SLP073 T01830039 10183 20056 58040
Loading
Personal Weather Stations






























Interactive Weather Map
Tropical Storm Tracking
New forecast layout! Learn more

10-Day Weather Forecast

Advertisements
Track Severe Weather on mobile